sensor_id;sensor_type;location;lat;lon;timestamp;P1;durP1;ratioP1;P2;durP2;ratioP2
16510;SDS011;8368;48.772;8.754;2022-11-12T00:00:43;5.30;;;4.47;;
16510;SDS011;8368;48.772;8.754;2022-11-12T00:03:08;4.83;;;4.43;;
16510;SDS011;8368;48.772;8.754;2022-11-12T00:05:34;4.90;;;4.50;;
16510;SDS011;8368;48.772;8.754;2022-11-12T00:08:01;4.57;;;4.20;;
16510;SDS011;8368;48.772;8.754;2022-11-12T00:10:27;4.57;;;4.17;;
16510;SDS011;8368;48.772;8.754;2022-11-12T00:12:53;4.43;;;4.13;;
16510;SDS011;8368;48.772;8.754;2022-11-12T00:15:19;5.23;;;4.53;;
16510;SDS011;8368;48.772;8.754;2022-11-12T00:17:44;4.93;;;4.30;;
16510;SDS011;8368;48.772;8.754;2022-11-12T00:20:10;4.47;;;4.07;;
16510;SDS011;8368;48.772;8.754;2022-11-12T00:22:36;4.50;;;4.20;;
16510;SDS011;8368;48.772;8.754;2022-11-12T00:25:02;5.10;;;4.70;;
16510;SDS011;8368;48.772;8.754;2022-11-12T00:27:28;4.70;;;4.30;;
16510;SDS011;8368;48.772;8.754;2022-11-12T00:29:56;6.27;;;4.97;;
16510;SDS011;8368;48.772;8.754;2022-11-12T00:32:21;4.70;;;4.30;;
16510;SDS011;8368;48.772;8.754;2022-11-12T00:34:47;5.00;;;4.53;;
16510;SDS011;8368;48.772;8.754;2022-11-12T00:37:12;5.20;;;4.80;;
16510;SDS011;8368;48.772;8.754;2022-11-12T00:39:38;4.80;;;4.40;;
16510;SDS011;8368;48.772;8.754;2022-11-12T00:42:03;4.97;;;4.57;;
16510;SDS011;8368;48.772;8.754;2022-11-12T00:44:29;4.57;;;4.17;;
16510;SDS011;8368;48.772;8.754;2022-11-12T00:46:55;4.80;;;4.47;;
16510;SDS011;8368;48.772;8.754;2022-11-12T00:49:21;4.50;;;4.20;;
16510;SDS011;8368;48.772;8.754;2022-11-12T00:51:46;4.43;;;4.10;;
16510;SDS011;8368;48.772;8.754;2022-11-12T00:54:12;4.37;;;3.97;;
16510;SDS011;8368;48.772;8.754;2022-11-12T00:56:38;4.03;;;3.73;;
16510;SDS011;8368;48.772;8.754;2022-11-12T00:59:03;4.40;;;4.00;;
16510;SDS011;8368;48.772;8.754;2022-11-12T01:01:29;4.37;;;3.97;;
16510;SDS011;8368;48.772;8.754;2022-11-12T01:03:56;4.20;;;3.90;;
16510;SDS011;8368;48.772;8.754;2022-11-12T01:06:22;4.07;;;3.60;;
16510;SDS011;8368;48.772;8.754;2022-11-12T01:08:48;7.73;;;3.77;;
16510;SDS011;8368;48.772;8.754;2022-11-12T01:11:16;4.20;;;3.80;;
16510;SDS011;8368;48.772;8.754;2022-11-12T01:13:44;3.70;;;3.50;;
16510;SDS011;8368;48.772;8.754;2022-11-12T01:16:13;4.27;;;3.90;;
16510;SDS011;8368;48.772;8.754;2022-11-12T01:18:40;3.70;;;3.37;;
16510;SDS011;8368;48.772;8.754;2022-11-12T01:21:07;5.80;;;4.40;;
16510;SDS011;8368;48.772;8.754;2022-11-12T01:23:33;4.80;;;4.40;;
16510;SDS011;8368;48.772;8.754;2022-11-12T01:26:04;4.80;;;4.07;;
16510;SDS011;8368;48.772;8.754;2022-11-12T01:28:41;4.33;;;3.90;;
16510;SDS011;8368;48.772;8.754;2022-11-12T01:33:44;4.27;;;3.97;;
16510;SDS011;8368;48.772;8.754;2022-11-12T01:36:13;4.90;;;3.80;;
16510;SDS011;8368;48.772;8.754;2022-11-12T01:38:40;4.13;;;3.83;;
16510;SDS011;8368;48.772;8.754;2022-11-12T01:41:07;4.53;;;3.93;;
16510;SDS011;8368;48.772;8.754;2022-11-12T01:43:35;4.57;;;4.17;;
16510;SDS011;8368;48.772;8.754;2022-11-12T01:46:01;4.30;;;3.90;;
16510;SDS011;8368;48.772;8.754;2022-11-12T01:48:34;5.73;;;4.07;;
16510;SDS011;8368;48.772;8.754;2022-11-12T01:51:04;4.77;;;4.00;;
16510;SDS011;8368;48.772;8.754;2022-11-12T01:53:31;5.10;;;3.70;;
16510;SDS011;8368;48.772;8.754;2022-11-12T01:56:02;3.27;;;3.07;;
16510;SDS011;8368;48.772;8.754;2022-11-12T01:58:29;3.63;;;3.33;;
16510;SDS011;8368;48.772;8.754;2022-11-12T02:00:57;3.60;;;3.30;;
16510;SDS011;8368;48.772;8.754;2022-11-12T02:03:24;3.90;;;3.70;;
16510;SDS011;8368;48.772;8.754;2022-11-12T02:05:55;4.07;;;3.77;;
16510;SDS011;8368;48.772;8.754;2022-11-12T02:08:27;4.10;;;3.80;;
16510;SDS011;8368;48.772;8.754;2022-11-12T02:10:53;4.50;;;4.10;;
16510;SDS011;8368;48.772;8.754;2022-11-12T02:13:19;4.80;;;4.40;;
16510;SDS011;8368;48.772;8.754;2022-11-12T02:16:04;5.47;;;4.97;;
16510;SDS011;8368;48.772;8.754;2022-11-12T02:18:31;4.50;;;4.20;;
16510;SDS011;8368;48.772;8.754;2022-11-12T02:20:57;4.97;;;4.47;;
16510;SDS011;8368;48.772;8.754;2022-11-12T02:23:29;4.67;;;4.27;;
16510;SDS011;8368;48.772;8.754;2022-11-12T02:25:57;3.33;;;3.13;;
16510;SDS011;8368;48.772;8.754;2022-11-12T02:28:23;3.80;;;3.50;;
16510;SDS011;8368;48.772;8.754;2022-11-12T02:30:49;3.53;;;3.23;;
16510;SDS011;8368;48.772;8.754;2022-11-12T02:33:15;3.50;;;3.30;;
16510;SDS011;8368;48.772;8.754;2022-11-12T02:35:41;3.33;;;3.07;;
16510;SDS011;8368;48.772;8.754;2022-11-12T02:38:07;3.30;;;3.10;;
16510;SDS011;8368;48.772;8.754;2022-11-12T02:40:32;3.57;;;3.23;;
16510;SDS011;8368;48.772;8.754;2022-11-12T02:42:58;3.47;;;3.20;;
16510;SDS011;8368;48.772;8.754;2022-11-12T02:45:24;3.67;;;3.37;;
16510;SDS011;8368;48.772;8.754;2022-11-12T02:47:50;3.97;;;3.47;;
16510;SDS011;8368;48.772;8.754;2022-11-12T02:50:16;3.90;;;3.50;;
16510;SDS011;8368;48.772;8.754;2022-11-12T02:52:42;3.57;;;3.27;;
16510;SDS011;8368;48.772;8.754;2022-11-12T02:55:08;3.90;;;3.53;;
16510;SDS011;8368;48.772;8.754;2022-11-12T02:57:35;3.73;;;3.53;;
16510;SDS011;8368;48.772;8.754;2022-11-12T03:00:03;3.97;;;3.67;;
16510;SDS011;8368;48.772;8.754;2022-11-12T03:02:29;3.30;;;3.10;;
16510;SDS011;8368;48.772;8.754;2022-11-12T03:04:54;4.00;;;3.70;;
16510;SDS011;8368;48.772;8.754;2022-11-12T03:07:20;3.60;;;3.30;;
16510;SDS011;8368;48.772;8.754;2022-11-12T03:09:45;3.97;;;3.63;;
16510;SDS011;8368;48.772;8.754;2022-11-12T03:12:11;3.50;;;3.30;;
16510;SDS011;8368;48.772;8.754;2022-11-12T03:14:36;3.83;;;3.50;;
16510;SDS011;8368;48.772;8.754;2022-11-12T03:17:02;3.93;;;3.63;;
16510;SDS011;8368;48.772;8.754;2022-11-12T03:19:28;3.20;;;3.00;;
16510;SDS011;8368;48.772;8.754;2022-11-12T03:21:53;3.40;;;3.20;;
16510;SDS011;8368;48.772;8.754;2022-11-12T03:24:19;3.30;;;3.10;;
16510;SDS011;8368;48.772;8.754;2022-11-12T03:26:44;3.60;;;3.40;;
16510;SDS011;8368;48.772;8.754;2022-11-12T03:29:10;3.90;;;3.60;;
16510;SDS011;8368;48.772;8.754;2022-11-12T03:31:35;4.43;;;4.13;;
16510;SDS011;8368;48.772;8.754;2022-11-12T03:34:01;4.53;;;4.13;;
16510;SDS011;8368;48.772;8.754;2022-11-12T03:36:26;5.50;;;4.90;;
16510;SDS011;8368;48.772;8.754;2022-11-12T03:38:52;4.50;;;4.10;;
16510;SDS011;8368;48.772;8.754;2022-11-12T03:41:17;4.33;;;3.97;;
16510;SDS011;8368;48.772;8.754;2022-11-12T03:43:43;4.30;;;3.90;;
16510;SDS011;8368;48.772;8.754;2022-11-12T03:46:08;4.70;;;4.40;;
16510;SDS011;8368;48.772;8.754;2022-11-12T03:48:34;9.43;;;4.70;;
16510;SDS011;8368;48.772;8.754;2022-11-12T03:51:00;4.37;;;4.00;;
16510;SDS011;8368;48.772;8.754;2022-11-12T03:53:26;4.47;;;4.07;;
16510;SDS011;8368;48.772;8.754;2022-11-12T03:55:51;4.43;;;4.10;;
16510;SDS011;8368;48.772;8.754;2022-11-12T03:58:17;4.20;;;3.80;;
16510;SDS011;8368;48.772;8.754;2022-11-12T04:00:43;3.40;;;3.10;;
16510;SDS011;8368;48.772;8.754;2022-11-12T04:03:08;3.47;;;3.17;;
16510;SDS011;8368;48.772;8.754;2022-11-12T04:05:34;3.43;;;3.23;;
16510;SDS011;8368;48.772;8.754;2022-11-12T04:08:19;3.50;;;3.30;;
16510;SDS011;8368;48.772;8.754;2022-11-12T04:11:02;4.27;;;3.37;;
16510;SDS011;8368;48.772;8.754;2022-11-12T04:13:28;3.40;;;3.20;;
16510;SDS011;8368;48.772;8.754;2022-11-12T04:15:55;3.53;;;3.33;;
16510;SDS011;8368;48.772;8.754;2022-11-12T04:18:40;3.40;;;3.20;;
16510;SDS011;8368;48.772;8.754;2022-11-12T04:21:28;3.37;;;3.17;;
16510;SDS011;8368;48.772;8.754;2022-11-12T04:24:14;3.23;;;3.03;;
16510;SDS011;8368;48.772;8.754;2022-11-12T04:27:00;3.40;;;3.13;;
16510;SDS011;8368;48.772;8.754;2022-11-12T04:29:26;2.80;;;2.70;;
16510;SDS011;8368;48.772;8.754;2022-11-12T04:32:10;2.93;;;2.73;;
16510;SDS011;8368;48.772;8.754;2022-11-12T04:34:36;3.43;;;3.00;;
16510;SDS011;8368;48.772;8.754;2022-11-12T04:37:02;3.63;;;2.87;;
16510;SDS011;8368;48.772;8.754;2022-11-12T04:39:29;2.87;;;2.33;;
16510;SDS011;8368;48.772;8.754;2022-11-12T04:41:54;3.00;;;2.57;;
16510;SDS011;8368;48.772;8.754;2022-11-12T04:44:39;2.63;;;2.53;;
16510;SDS011;8368;48.772;8.754;2022-11-12T04:47:23;2.90;;;2.70;;
16510;SDS011;8368;48.772;8.754;2022-11-12T04:49:49;3.17;;;2.97;;
16510;SDS011;8368;48.772;8.754;2022-11-12T04:52:15;3.40;;;3.20;;
16510;SDS011;8368;48.772;8.754;2022-11-12T04:54:40;3.20;;;3.00;;
16510;SDS011;8368;48.772;8.754;2022-11-12T04:57:06;3.60;;;3.40;;
16510;SDS011;8368;48.772;8.754;2022-11-12T04:59:32;3.50;;;3.30;;
16510;SDS011;8368;48.772;8.754;2022-11-12T05:01:57;3.47;;;3.17;;
16510;SDS011;8368;48.772;8.754;2022-11-12T05:04:23;3.00;;;2.80;;
16510;SDS011;8368;48.772;8.754;2022-11-12T05:06:52;3.20;;;3.00;;
16510;SDS011;8368;48.772;8.754;2022-11-12T05:09:22;3.30;;;3.10;;
16510;SDS011;8368;48.772;8.754;2022-11-12T05:11:49;3.40;;;3.10;;
16510;SDS011;8368;48.772;8.754;2022-11-12T05:14:15;3.10;;;2.80;;
16510;SDS011;8368;48.772;8.754;2022-11-12T05:16:42;2.47;;;2.37;;
16510;SDS011;8368;48.772;8.754;2022-11-12T05:19:08;2.70;;;2.60;;
16510;SDS011;8368;48.772;8.754;2022-11-12T05:21:33;2.93;;;2.73;;
16510;SDS011;8368;48.772;8.754;2022-11-12T05:24:18;2.73;;;2.63;;
16510;SDS011;8368;48.772;8.754;2022-11-12T05:26:43;2.73;;;2.63;;
16510;SDS011;8368;48.772;8.754;2022-11-12T05:29:09;3.03;;;2.83;;
16510;SDS011;8368;48.772;8.754;2022-11-12T05:31:34;2.87;;;2.77;;
16510;SDS011;8368;48.772;8.754;2022-11-12T05:34:00;3.00;;;2.83;;
16510;SDS011;8368;48.772;8.754;2022-11-12T05:36:25;3.80;;;2.90;;
16510;SDS011;8368;48.772;8.754;2022-11-12T05:38:51;3.10;;;3.00;;
16510;SDS011;8368;48.772;8.754;2022-11-12T05:41:17;3.50;;;3.30;;
16510;SDS011;8368;48.772;8.754;2022-11-12T05:43:42;3.20;;;3.00;;
16510;SDS011;8368;48.772;8.754;2022-11-12T05:46:08;2.90;;;2.80;;
16510;SDS011;8368;48.772;8.754;2022-11-12T05:48:33;3.43;;;3.23;;
16510;SDS011;8368;48.772;8.754;2022-11-12T05:50:59;3.07;;;2.87;;
16510;SDS011;8368;48.772;8.754;2022-11-12T05:53:24;3.47;;;3.27;;
16510;SDS011;8368;48.772;8.754;2022-11-12T05:55:50;4.70;;;2.90;;
16510;SDS011;8368;48.772;8.754;2022-11-12T05:58:16;2.97;;;2.83;;
16510;SDS011;8368;48.772;8.754;2022-11-12T06:00:42;3.63;;;3.23;;
16510;SDS011;8368;48.772;8.754;2022-11-12T06:03:08;3.40;;;3.10;;
16510;SDS011;8368;48.772;8.754;2022-11-12T06:05:34;3.00;;;2.83;;
16510;SDS011;8368;48.772;8.754;2022-11-12T06:08:00;5.03;;;3.40;;
16510;SDS011;8368;48.772;8.754;2022-11-12T06:10:26;14.37;;;6.50;;
16510;SDS011;8368;48.772;8.754;2022-11-12T06:12:51;5.27;;;4.70;;
16510;SDS011;8368;48.772;8.754;2022-11-12T06:15:18;4.83;;;2.83;;
16510;SDS011;8368;48.772;8.754;2022-11-12T06:17:43;3.53;;;2.70;;
16510;SDS011;8368;48.772;8.754;2022-11-12T06:20:09;2.50;;;2.30;;
16510;SDS011;8368;48.772;8.754;2022-11-12T06:22:35;4.37;;;2.50;;
16510;SDS011;8368;48.772;8.754;2022-11-12T06:25:01;2.40;;;2.30;;
16510;SDS011;8368;48.772;8.754;2022-11-12T06:27:28;2.73;;;2.50;;
16510;SDS011;8368;48.772;8.754;2022-11-12T06:29:53;2.67;;;2.53;;
16510;SDS011;8368;48.772;8.754;2022-11-12T06:32:19;3.30;;;2.60;;
16510;SDS011;8368;48.772;8.754;2022-11-12T06:34:44;2.57;;;2.47;;
16510;SDS011;8368;48.772;8.754;2022-11-12T06:37:10;2.63;;;2.50;;
16510;SDS011;8368;48.772;8.754;2022-11-12T06:39:36;2.60;;;2.17;;
16510;SDS011;8368;48.772;8.754;2022-11-12T06:42:01;3.13;;;2.83;;
16510;SDS011;8368;48.772;8.754;2022-11-12T06:44:27;4.93;;;4.53;;
16510;SDS011;8368;48.772;8.754;2022-11-12T06:46:52;12.77;;;9.20;;
16510;SDS011;8368;48.772;8.754;2022-11-12T06:49:18;12.40;;;10.13;;
16510;SDS011;8368;48.772;8.754;2022-11-12T06:51:44;14.47;;;10.90;;
16510;SDS011;8368;48.772;8.754;2022-11-12T06:54:09;11.50;;;10.30;;
16510;SDS011;8368;48.772;8.754;2022-11-12T06:56:35;9.00;;;6.77;;
16510;SDS011;8368;48.772;8.754;2022-11-12T06:59:01;7.27;;;6.63;;
16510;SDS011;8368;48.772;8.754;2022-11-12T07:01:26;9.17;;;5.57;;
16510;SDS011;8368;48.772;8.754;2022-11-12T07:03:52;4.53;;;4.13;;
16510;SDS011;8368;48.772;8.754;2022-11-12T07:06:18;5.63;;;4.50;;
16510;SDS011;8368;48.772;8.754;2022-11-12T07:08:47;4.60;;;4.20;;
16510;SDS011;8368;48.772;8.754;2022-11-12T07:11:13;4.17;;;3.87;;
16510;SDS011;8368;48.772;8.754;2022-11-12T07:13:44;3.90;;;3.60;;
16510;SDS011;8368;48.772;8.754;2022-11-12T07:16:10;3.33;;;3.13;;
16510;SDS011;8368;48.772;8.754;2022-11-12T07:18:38;3.50;;;3.20;;
16510;SDS011;8368;48.772;8.754;2022-11-12T07:21:07;2.87;;;2.77;;
16510;SDS011;8368;48.772;8.754;2022-11-12T07:23:35;3.17;;;2.97;;
16510;SDS011;8368;48.772;8.754;2022-11-12T07:26:03;3.50;;;3.17;;
16510;SDS011;8368;48.772;8.754;2022-11-12T07:28:38;8.40;;;4.10;;
16510;SDS011;8368;48.772;8.754;2022-11-12T07:31:05;6.57;;;4.43;;
16510;SDS011;8368;48.772;8.754;2022-11-12T07:33:34;15.00;;;4.93;;
16510;SDS011;8368;48.772;8.754;2022-11-12T07:36:00;11.53;;;4.50;;
16510;SDS011;8368;48.772;8.754;2022-11-12T07:38:28;13.53;;;4.70;;
16510;SDS011;8368;48.772;8.754;2022-11-12T07:40:58;6.63;;;4.10;;
16510;SDS011;8368;48.772;8.754;2022-11-12T07:43:26;7.37;;;3.87;;
16510;SDS011;8368;48.772;8.754;2022-11-12T07:45:58;4.10;;;3.60;;
16510;SDS011;8368;48.772;8.754;2022-11-12T07:48:25;5.60;;;3.80;;
16510;SDS011;8368;48.772;8.754;2022-11-12T07:50:51;4.70;;;4.27;;
16510;SDS011;8368;48.772;8.754;2022-11-12T07:53:16;3.87;;;3.60;;
16510;SDS011;8368;48.772;8.754;2022-11-12T07:55:42;3.60;;;3.30;;
16510;SDS011;8368;48.772;8.754;2022-11-12T07:58:07;3.17;;;2.87;;
16510;SDS011;8368;48.772;8.754;2022-11-12T08:00:33;3.27;;;3.00;;
16510;SDS011;8368;48.772;8.754;2022-11-12T08:02:59;4.83;;;3.00;;
16510;SDS011;8368;48.772;8.754;2022-11-12T08:05:25;4.27;;;3.30;;
16510;SDS011;8368;48.772;8.754;2022-11-12T08:07:53;3.40;;;3.10;;
16510;SDS011;8368;48.772;8.754;2022-11-12T08:10:20;3.93;;;3.00;;
16510;SDS011;8368;48.772;8.754;2022-11-12T08:12:46;4.97;;;3.37;;
16510;SDS011;8368;48.772;8.754;2022-11-12T08:15:11;7.70;;;4.00;;
16510;SDS011;8368;48.772;8.754;2022-11-12T08:17:37;9.30;;;3.80;;
16510;SDS011;8368;48.772;8.754;2022-11-12T08:20:04;7.77;;;3.53;;
16510;SDS011;8368;48.772;8.754;2022-11-12T08:22:30;7.23;;;4.13;;
16510;SDS011;8368;48.772;8.754;2022-11-12T08:24:56;7.30;;;4.03;;
16510;SDS011;8368;48.772;8.754;2022-11-12T08:27:21;9.17;;;4.23;;
16510;SDS011;8368;48.772;8.754;2022-11-12T08:29:47;4.60;;;4.20;;
16510;SDS011;8368;48.772;8.754;2022-11-12T08:32:14;4.23;;;3.93;;
16510;SDS011;8368;48.772;8.754;2022-11-12T08:34:39;3.90;;;3.60;;
16510;SDS011;8368;48.772;8.754;2022-11-12T08:37:07;4.87;;;4.00;;
16510;SDS011;8368;48.772;8.754;2022-11-12T08:39:33;5.57;;;3.73;;
16510;SDS011;8368;48.772;8.754;2022-11-12T08:41:58;4.40;;;4.00;;
16510;SDS011;8368;48.772;8.754;2022-11-12T08:44:24;5.63;;;4.57;;
16510;SDS011;8368;48.772;8.754;2022-11-12T08:46:50;7.77;;;5.00;;
16510;SDS011;8368;48.772;8.754;2022-11-12T08:49:15;6.37;;;5.00;;
16510;SDS011;8368;48.772;8.754;2022-11-12T08:51:41;5.47;;;4.97;;
16510;SDS011;8368;48.772;8.754;2022-11-12T08:54:06;5.77;;;4.77;;
16510;SDS011;8368;48.772;8.754;2022-11-12T08:56:32;9.03;;;4.50;;
16510;SDS011;8368;48.772;8.754;2022-11-12T08:58:58;5.93;;;4.23;;
16510;SDS011;8368;48.772;8.754;2022-11-12T09:01:24;9.30;;;5.27;;
16510;SDS011;8368;48.772;8.754;2022-11-12T09:03:49;7.43;;;5.50;;
16510;SDS011;8368;48.772;8.754;2022-11-12T09:06:15;5.67;;;5.17;;
16510;SDS011;8368;48.772;8.754;2022-11-12T09:08:41;5.43;;;4.93;;
16510;SDS011;8368;48.772;8.754;2022-11-12T09:11:06;5.40;;;4.90;;
16510;SDS011;8368;48.772;8.754;2022-11-12T09:13:32;6.23;;;5.63;;
16510;SDS011;8368;48.772;8.754;2022-11-12T09:15:59;7.43;;;4.90;;
16510;SDS011;8368;48.772;8.754;2022-11-12T09:18:26;6.40;;;5.80;;
16510;SDS011;8368;48.772;8.754;2022-11-12T09:20:52;9.00;;;6.60;;
16510;SDS011;8368;48.772;8.754;2022-11-12T09:23:17;6.87;;;6.13;;
16510;SDS011;8368;48.772;8.754;2022-11-12T09:25:43;7.93;;;5.93;;
16510;SDS011;8368;48.772;8.754;2022-11-12T09:28:13;9.10;;;5.80;;
16510;SDS011;8368;48.772;8.754;2022-11-12T09:30:41;6.23;;;5.60;;
16510;SDS011;8368;48.772;8.754;2022-11-12T09:33:10;6.17;;;5.57;;
16510;SDS011;8368;48.772;8.754;2022-11-12T09:35:37;5.93;;;5.37;;
16510;SDS011;8368;48.772;8.754;2022-11-12T09:38:02;7.53;;;5.67;;
16510;SDS011;8368;48.772;8.754;2022-11-12T09:40:36;9.43;;;6.07;;
16510;SDS011;8368;48.772;8.754;2022-11-12T09:46:05;7.27;;;5.97;;
16510;SDS011;8368;48.772;8.754;2022-11-12T09:48:51;6.93;;;6.23;;
16510;SDS011;8368;48.772;8.754;2022-11-12T09:51:25;6.57;;;5.37;;
16510;SDS011;8368;48.772;8.754;2022-11-12T09:53:56;9.90;;;5.63;;
16510;SDS011;8368;48.772;8.754;2022-11-12T09:56:25;5.80;;;5.00;;
16510;SDS011;8368;48.772;8.754;2022-11-12T09:58:53;5.73;;;4.77;;
16510;SDS011;8368;48.772;8.754;2022-11-12T10:10:03;5.70;;;4.20;;
16510;SDS011;8368;48.772;8.754;2022-11-12T10:19:08;4.37;;;3.83;;
16510;SDS011;8368;48.772;8.754;2022-11-12T10:25:15;3.50;;;3.20;;
16510;SDS011;8368;48.772;8.754;2022-11-12T10:27:44;3.70;;;3.40;;
16510;SDS011;8368;48.772;8.754;2022-11-12T10:30:17;3.40;;;3.10;;
16510;SDS011;8368;48.772;8.754;2022-11-12T10:32:45;3.17;;;2.90;;
16510;SDS011;8368;48.772;8.754;2022-11-12T10:35:13;2.50;;;2.40;;
16510;SDS011;8368;48.772;8.754;2022-11-12T10:42:55;1.70;;;1.60;;
16510;SDS011;8368;48.772;8.754;2022-11-12T10:45:23;1.73;;;1.73;;
16510;SDS011;8368;48.772;8.754;2022-11-12T10:47:48;2.20;;;1.50;;
16510;SDS011;8368;48.772;8.754;2022-11-12T10:50:22;1.60;;;1.60;;
16510;SDS011;8368;48.772;8.754;2022-11-12T10:52:59;2.03;;;1.93;;
16510;SDS011;8368;48.772;8.754;2022-11-12T10:58:03;1.80;;;1.70;;
16510;SDS011;8368;48.772;8.754;2022-11-12T11:00:29;2.07;;;1.47;;
16510;SDS011;8368;48.772;8.754;2022-11-12T11:02:55;1.80;;;1.30;;
16510;SDS011;8368;48.772;8.754;2022-11-12T11:08:00;4.03;;;3.60;;
16510;SDS011;8368;48.772;8.754;2022-11-12T11:10:30;3.60;;;3.30;;
16510;SDS011;8368;48.772;8.754;2022-11-12T11:13:07;3.80;;;3.53;;
16510;SDS011;8368;48.772;8.754;2022-11-12T11:15:33;5.33;;;3.97;;
16510;SDS011;8368;48.772;8.754;2022-11-12T11:17:58;4.07;;;3.77;;
16510;SDS011;8368;48.772;8.754;2022-11-12T11:20:25;4.40;;;3.80;;
16510;SDS011;8368;48.772;8.754;2022-11-12T11:25:45;3.93;;;3.63;;
16510;SDS011;8368;48.772;8.754;2022-11-12T11:28:21;4.10;;;3.33;;
16510;SDS011;8368;48.772;8.754;2022-11-12T11:45:30;3.17;;;3.00;;
16510;SDS011;8368;48.772;8.754;2022-11-12T11:48:06;3.40;;;3.07;;
16510;SDS011;8368;48.772;8.754;2022-11-12T11:53:32;3.23;;;2.80;;
16510;SDS011;8368;48.772;8.754;2022-11-12T11:56:04;3.20;;;3.10;;
16510;SDS011;8368;48.772;8.754;2022-11-12T12:01:28;4.93;;;3.30;;
16510;SDS011;8368;48.772;8.754;2022-11-12T12:10:13;2.90;;;2.80;;
16510;SDS011;8368;48.772;8.754;2022-11-12T12:13:01;4.93;;;3.70;;
16510;SDS011;8368;48.772;8.754;2022-11-12T12:22:02;4.37;;;4.10;;
16510;SDS011;8368;48.772;8.754;2022-11-12T12:24:43;4.67;;;4.30;;
16510;SDS011;8368;48.772;8.754;2022-11-12T12:27:22;5.17;;;4.70;;
16510;SDS011;8368;48.772;8.754;2022-11-12T12:32:42;5.77;;;5.27;;
16510;SDS011;8368;48.772;8.754;2022-11-12T12:38:04;7.30;;;5.67;;
16510;SDS011;8368;48.772;8.754;2022-11-12T12:40:42;6.80;;;6.10;;
16510;SDS011;8368;48.772;8.754;2022-11-12T12:43:28;6.53;;;6.03;;
16510;SDS011;8368;48.772;8.754;2022-11-12T12:46:00;7.43;;;6.57;;
16510;SDS011;8368;48.772;8.754;2022-11-12T12:48:28;7.30;;;6.60;;
16510;SDS011;8368;48.772;8.754;2022-11-12T12:50:56;7.47;;;6.87;;
16510;SDS011;8368;48.772;8.754;2022-11-12T12:55:56;6.73;;;6.13;;
16510;SDS011;8368;48.772;8.754;2022-11-12T13:08:53;8.00;;;6.83;;
16510;SDS011;8368;48.772;8.754;2022-11-12T13:19:30;6.87;;;6.30;;
16510;SDS011;8368;48.772;8.754;2022-11-12T13:25:00;6.93;;;6.37;;
16510;SDS011;8368;48.772;8.754;2022-11-12T13:40:41;6.90;;;6.30;;
16510;SDS011;8368;48.772;8.754;2022-11-12T13:48:48;7.10;;;6.50;;
16510;SDS011;8368;48.772;8.754;2022-11-12T13:53:50;7.53;;;6.50;;
16510;SDS011;8368;48.772;8.754;2022-11-12T13:56:26;6.27;;;5.77;;
16510;SDS011;8368;48.772;8.754;2022-11-12T14:01:41;6.37;;;5.77;;
16510;SDS011;8368;48.772;8.754;2022-11-12T14:04:12;6.33;;;5.83;;
16510;SDS011;8368;48.772;8.754;2022-11-12T14:06:41;6.10;;;5.60;;
16510;SDS011;8368;48.772;8.754;2022-11-12T14:09:29;6.23;;;5.73;;
16510;SDS011;8368;48.772;8.754;2022-11-12T14:12:04;6.17;;;5.67;;
16510;SDS011;8368;48.772;8.754;2022-11-12T14:17:28;6.97;;;6.10;;
16510;SDS011;8368;48.772;8.754;2022-11-12T14:22:36;6.80;;;6.23;;
16510;SDS011;8368;48.772;8.754;2022-11-12T14:25:09;7.33;;;6.63;;
16510;SDS011;8368;48.772;8.754;2022-11-12T14:27:40;6.50;;;6.00;;
16510;SDS011;8368;48.772;8.754;2022-11-12T14:32:41;6.63;;;6.13;;
16510;SDS011;8368;48.772;8.754;2022-11-12T14:37:50;7.33;;;6.73;;
16510;SDS011;8368;48.772;8.754;2022-11-12T14:40:20;6.63;;;6.03;;
16510;SDS011;8368;48.772;8.754;2022-11-12T14:42:47;6.43;;;5.83;;
16510;SDS011;8368;48.772;8.754;2022-11-12T14:45:15;7.23;;;6.63;;
16510;SDS011;8368;48.772;8.754;2022-11-12T14:47:43;8.03;;;7.23;;
16510;SDS011;8368;48.772;8.754;2022-11-12T14:52:53;8.47;;;7.70;;
16510;SDS011;8368;48.772;8.754;2022-11-12T14:55:29;8.43;;;7.50;;
16510;SDS011;8368;48.772;8.754;2022-11-12T14:57:57;12.03;;;8.37;;
16510;SDS011;8368;48.772;8.754;2022-11-12T15:02:56;8.63;;;6.77;;
16510;SDS011;8368;48.772;8.754;2022-11-12T15:05:23;7.33;;;6.73;;
16510;SDS011;8368;48.772;8.754;2022-11-12T15:10:32;8.97;;;7.33;;
16510;SDS011;8368;48.772;8.754;2022-11-12T15:13:02;8.60;;;7.63;;
16510;SDS011;8368;48.772;8.754;2022-11-12T15:15:30;8.67;;;7.87;;
16510;SDS011;8368;48.772;8.754;2022-11-12T15:17:58;7.97;;;7.27;;
16510;SDS011;8368;48.772;8.754;2022-11-12T15:20:26;10.37;;;8.23;;
16510;SDS011;8368;48.772;8.754;2022-11-12T15:22:52;9.47;;;7.67;;
16510;SDS011;8368;48.772;8.754;2022-11-12T15:27:51;10.77;;;8.07;;
16510;SDS011;8368;48.772;8.754;2022-11-12T15:33:06;9.10;;;8.07;;
16510;SDS011;8368;48.772;8.754;2022-11-12T15:35:35;10.60;;;8.83;;
16510;SDS011;8368;48.772;8.754;2022-11-12T15:38:04;10.07;;;8.63;;
16510;SDS011;8368;48.772;8.754;2022-11-12T15:40:39;8.77;;;7.90;;
16510;SDS011;8368;48.772;8.754;2022-11-12T15:43:17;9.80;;;8.77;;
16510;SDS011;8368;48.772;8.754;2022-11-12T15:45:47;11.20;;;8.73;;
16510;SDS011;8368;48.772;8.754;2022-11-12T15:48:14;10.90;;;8.40;;
16510;SDS011;8368;48.772;8.754;2022-11-12T15:50:40;9.50;;;8.60;;
16510;SDS011;8368;48.772;8.754;2022-11-12T15:53:05;9.97;;;8.50;;
16510;SDS011;8368;48.772;8.754;2022-11-12T15:55:31;8.97;;;8.07;;
16510;SDS011;8368;48.772;8.754;2022-11-12T15:57:58;8.10;;;7.30;;
16510;SDS011;8368;48.772;8.754;2022-11-12T16:00:24;9.47;;;8.57;;
16510;SDS011;8368;48.772;8.754;2022-11-12T16:02:58;11.27;;;8.60;;
16510;SDS011;8368;48.772;8.754;2022-11-12T16:05:27;11.50;;;9.47;;
16510;SDS011;8368;48.772;8.754;2022-11-12T16:07:52;9.07;;;8.07;;
16510;SDS011;8368;48.772;8.754;2022-11-12T16:10:18;9.23;;;8.07;;
16510;SDS011;8368;48.772;8.754;2022-11-12T16:12:44;11.83;;;8.70;;
16510;SDS011;8368;48.772;8.754;2022-11-12T16:15:15;13.20;;;10.67;;
16510;SDS011;8368;48.772;8.754;2022-11-12T16:17:43;13.97;;;11.33;;
16510;SDS011;8368;48.772;8.754;2022-11-12T16:20:16;14.20;;;11.27;;
16510;SDS011;8368;48.772;8.754;2022-11-12T16:22:47;15.60;;;11.87;;
16510;SDS011;8368;48.772;8.754;2022-11-12T16:25:13;24.93;;;15.43;;
16510;SDS011;8368;48.772;8.754;2022-11-12T16:27:39;29.87;;;20.57;;
16510;SDS011;8368;48.772;8.754;2022-11-12T16:30:05;27.57;;;20.70;;
16510;SDS011;8368;48.772;8.754;2022-11-12T16:32:38;26.60;;;19.40;;
16510;SDS011;8368;48.772;8.754;2022-11-12T16:35:04;31.47;;;23.30;;
16510;SDS011;8368;48.772;8.754;2022-11-12T16:37:30;24.87;;;18.27;;
16510;SDS011;8368;48.772;8.754;2022-11-12T16:39:56;19.70;;;15.23;;
16510;SDS011;8368;48.772;8.754;2022-11-12T16:42:22;24.03;;;18.03;;
16510;SDS011;8368;48.772;8.754;2022-11-12T16:44:47;26.80;;;18.53;;
16510;SDS011;8368;48.772;8.754;2022-11-12T16:47:13;20.83;;;15.97;;
16510;SDS011;8368;48.772;8.754;2022-11-12T16:49:38;21.77;;;14.50;;
16510;SDS011;8368;48.772;8.754;2022-11-12T16:52:09;26.67;;;18.33;;
16510;SDS011;8368;48.772;8.754;2022-11-12T16:54:35;28.23;;;21.93;;
16510;SDS011;8368;48.772;8.754;2022-11-12T16:57:00;31.27;;;24.90;;
16510;SDS011;8368;48.772;8.754;2022-11-12T16:59:26;35.37;;;29.53;;
16510;SDS011;8368;48.772;8.754;2022-11-12T17:01:51;28.30;;;22.80;;
16510;SDS011;8368;48.772;8.754;2022-11-12T17:04:17;17.83;;;15.67;;
16510;SDS011;8368;48.772;8.754;2022-11-12T17:06:43;22.07;;;17.40;;
16510;SDS011;8368;48.772;8.754;2022-11-12T17:09:24;24.93;;;17.60;;
16510;SDS011;8368;48.772;8.754;2022-11-12T17:11:49;33.13;;;21.47;;
16510;SDS011;8368;48.772;8.754;2022-11-12T17:14:15;35.00;;;22.47;;
16510;SDS011;8368;48.772;8.754;2022-11-12T17:16:42;35.83;;;21.83;;
16510;SDS011;8368;48.772;8.754;2022-11-12T17:19:09;56.70;;;33.03;;
16510;SDS011;8368;48.772;8.754;2022-11-12T17:21:34;59.03;;;30.57;;
16510;SDS011;8368;48.772;8.754;2022-11-12T17:24:00;53.80;;;29.57;;
16510;SDS011;8368;48.772;8.754;2022-11-12T17:26:25;36.10;;;23.67;;
16510;SDS011;8368;48.772;8.754;2022-11-12T17:28:51;33.47;;;21.33;;
16510;SDS011;8368;48.772;8.754;2022-11-12T17:31:17;31.57;;;19.97;;